sensor_id;sensor_type;location;lat;lon;timestamp;P1;durP1;ratioP1;P2;durP2;ratioP2
71166;SDS011;58864;45.928;20.078;2023-04-29T00:00:44;8.40;;;4.20;;
71166;SDS011;58864;45.928;20.078;2023-04-29T00:03:09;9.80;;;3.97;;
71166;SDS011;58864;45.928;20.078;2023-04-29T00:05:34;7.57;;;3.40;;
71166;SDS011;58864;45.928;20.078;2023-04-29T00:07:59;8.30;;;3.42;;
71166;SDS011;58864;45.928;20.078;2023-04-29T00:10:23;10.10;;;3.90;;
71166;SDS011;58864;45.928;20.078;2023-04-29T00:12:48;8.03;;;3.60;;
71166;SDS011;58864;45.928;20.078;2023-04-29T00:15:14;7.38;;;2.90;;
71166;SDS011;58864;45.928;20.078;2023-04-29T00:17:38;8.65;;;3.20;;
71166;SDS011;58864;45.928;20.078;2023-04-29T00:20:03;8.13;;;3.63;;
71166;SDS011;58864;45.928;20.078;2023-04-29T00:22:29;8.88;;;3.78;;
71166;SDS011;58864;45.928;20.078;2023-04-29T00:24:53;7.23;;;2.90;;
71166;SDS011;58864;45.928;20.078;2023-04-29T00:27:18;7.87;;;3.80;;
71166;SDS011;58864;45.928;20.078;2023-04-29T00:29:42;7.63;;;3.38;;
71166;SDS011;58864;45.928;20.078;2023-04-29T00:32:07;8.80;;;3.40;;
71166;SDS011;58864;45.928;20.078;2023-04-29T00:34:31;8.98;;;3.20;;
71166;SDS011;58864;45.928;20.078;2023-04-29T00:36:56;11.07;;;3.67;;
71166;SDS011;58864;45.928;20.078;2023-04-29T00:39:21;9.23;;;3.53;;
71166;SDS011;58864;45.928;20.078;2023-04-29T00:41:45;8.25;;;4.03;;
71166;SDS011;58864;45.928;20.078;2023-04-29T00:44:10;8.77;;;3.60;;
71166;SDS011;58864;45.928;20.078;2023-04-29T00:46:34;9.95;;;4.00;;
71166;SDS011;58864;45.928;20.078;2023-04-29T00:48:59;10.20;;;3.93;;
71166;SDS011;58864;45.928;20.078;2023-04-29T00:51:24;8.02;;;3.63;;
71166;SDS011;58864;45.928;20.078;2023-04-29T00:53:49;8.27;;;3.75;;
71166;SDS011;58864;45.928;20.078;2023-04-29T00:56:14;7.60;;;3.37;;
71166;SDS011;58864;45.928;20.078;2023-04-29T00:58:38;8.13;;;3.53;;
71166;SDS011;58864;45.928;20.078;2023-04-29T01:01:03;7.78;;;3.60;;
71166;SDS011;58864;45.928;20.078;2023-04-29T01:03:28;7.97;;;3.10;;
71166;SDS011;58864;45.928;20.078;2023-04-29T01:05:56;8.77;;;3.70;;
71166;SDS011;58864;45.928;20.078;2023-04-29T01:11:16;7.40;;;3.28;;
71166;SDS011;58864;45.928;20.078;2023-04-29T01:13:50;7.78;;;3.78;;
71166;SDS011;58864;45.928;20.078;2023-04-29T01:16:24;9.50;;;4.00;;
71166;SDS011;58864;45.928;20.078;2023-04-29T01:18:53;9.18;;;3.83;;
71166;SDS011;58864;45.928;20.078;2023-04-29T01:21:19;7.47;;;3.53;;
71166;SDS011;58864;45.928;20.078;2023-04-29T01:23:44;9.60;;;3.30;;
71166;SDS011;58864;45.928;20.078;2023-04-29T01:26:08;8.97;;;3.97;;
71166;SDS011;58864;45.928;20.078;2023-04-29T01:32:01;11.98;;;4.20;;
71166;SDS011;58864;45.928;20.078;2023-04-29T01:34:39;8.38;;;3.55;;
71166;SDS011;58864;45.928;20.078;2023-04-29T01:37:15;9.85;;;3.65;;
71166;SDS011;58864;45.928;20.078;2023-04-29T01:45:09;9.52;;;3.72;;
71166;SDS011;58864;45.928;20.078;2023-04-29T01:47:35;7.97;;;3.55;;
71166;SDS011;58864;45.928;20.078;2023-04-29T01:49:59;8.20;;;3.53;;
71166;SDS011;58864;45.928;20.078;2023-04-29T01:52:25;8.70;;;3.95;;
71166;SDS011;58864;45.928;20.078;2023-04-29T01:54:51;8.40;;;4.03;;
71166;SDS011;58864;45.928;20.078;2023-04-29T01:57:16;8.80;;;4.07;;
71166;SDS011;58864;45.928;20.078;2023-04-29T01:59:40;10.73;;;3.90;;
71166;SDS011;58864;45.928;20.078;2023-04-29T02:02:05;9.33;;;4.07;;
71166;SDS011;58864;45.928;20.078;2023-04-29T02:04:29;7.82;;;4.00;;
71166;SDS011;58864;45.928;20.078;2023-04-29T02:06:56;8.10;;;3.23;;
71166;SDS011;58864;45.928;20.078;2023-04-29T02:09:21;7.90;;;3.75;;
71166;SDS011;58864;45.928;20.078;2023-04-29T02:11:45;8.10;;;4.23;;
71166;SDS011;58864;45.928;20.078;2023-04-29T02:14:09;7.77;;;3.93;;
71166;SDS011;58864;45.928;20.078;2023-04-29T02:16:35;10.43;;;4.50;;
71166;SDS011;58864;45.928;20.078;2023-04-29T02:19:00;9.80;;;4.67;;
71166;SDS011;58864;45.928;20.078;2023-04-29T02:21:24;8.98;;;4.65;;
71166;SDS011;58864;45.928;20.078;2023-04-29T02:23:50;12.27;;;5.80;;
71166;SDS011;58864;45.928;20.078;2023-04-29T02:26:14;10.63;;;5.30;;
71166;SDS011;58864;45.928;20.078;2023-04-29T02:28:39;9.97;;;4.60;;
71166;SDS011;58864;45.928;20.078;2023-04-29T02:31:03;9.77;;;5.03;;
71166;SDS011;58864;45.928;20.078;2023-04-29T02:33:28;9.50;;;4.80;;
71166;SDS011;58864;45.928;20.078;2023-04-29T02:35:52;12.43;;;5.00;;
71166;SDS011;58864;45.928;20.078;2023-04-29T02:38:17;12.32;;;5.65;;
71166;SDS011;58864;45.928;20.078;2023-04-29T02:40:42;9.57;;;4.80;;
71166;SDS011;58864;45.928;20.078;2023-04-29T02:43:07;9.60;;;4.60;;
71166;SDS011;58864;45.928;20.078;2023-04-29T02:45:32;10.40;;;4.57;;
71166;SDS011;58864;45.928;20.078;2023-04-29T02:47:57;9.33;;;4.80;;
71166;SDS011;58864;45.928;20.078;2023-04-29T02:50:21;8.97;;;4.70;;
71166;SDS011;58864;45.928;20.078;2023-04-29T02:52:46;8.93;;;4.50;;
71166;SDS011;58864;45.928;20.078;2023-04-29T02:55:10;9.50;;;4.47;;
71166;SDS011;58864;45.928;20.078;2023-04-29T02:57:35;9.03;;;4.60;;
71166;SDS011;58864;45.928;20.078;2023-04-29T02:59:59;9.63;;;4.70;;
71166;SDS011;58864;45.928;20.078;2023-04-29T03:04:50;9.85;;;4.60;;
71166;SDS011;58864;45.928;20.078;2023-04-29T03:07:15;10.50;;;5.13;;
71166;SDS011;58864;45.928;20.078;2023-04-29T03:09:40;10.73;;;5.65;;
71166;SDS011;58864;45.928;20.078;2023-04-29T03:12:04;11.60;;;6.27;;
71166;SDS011;58864;45.928;20.078;2023-04-29T03:14:29;11.03;;;5.77;;
71166;SDS011;58864;45.928;20.078;2023-04-29T03:16:53;12.20;;;6.28;;
71166;SDS011;58864;45.928;20.078;2023-04-29T03:19:19;11.10;;;5.47;;
71166;SDS011;58864;45.928;20.078;2023-04-29T03:21:43;13.30;;;6.85;;
71166;SDS011;58864;45.928;20.078;2023-04-29T03:24:08;10.50;;;5.67;;
71166;SDS011;58864;45.928;20.078;2023-04-29T03:26:32;13.33;;;6.50;;
71166;SDS011;58864;45.928;20.078;2023-04-29T03:28:57;14.03;;;6.80;;
71166;SDS011;58864;45.928;20.078;2023-04-29T03:31:22;12.40;;;6.73;;
71166;SDS011;58864;45.928;20.078;2023-04-29T03:33:47;10.30;;;5.80;;
71166;SDS011;58864;45.928;20.078;2023-04-29T03:36:11;14.53;;;7.27;;
71166;SDS011;58864;45.928;20.078;2023-04-29T03:38:36;14.95;;;7.25;;
71166;SDS011;58864;45.928;20.078;2023-04-29T03:41:00;13.77;;;7.07;;
71166;SDS011;58864;45.928;20.078;2023-04-29T03:43:26;14.63;;;6.85;;
71166;SDS011;58864;45.928;20.078;2023-04-29T03:45:50;13.87;;;7.10;;
71166;SDS011;58864;45.928;20.078;2023-04-29T03:48:15;11.23;;;6.00;;
71166;SDS011;58864;45.928;20.078;2023-04-29T03:50:39;12.38;;;6.85;;
71166;SDS011;58864;45.928;20.078;2023-04-29T03:53:04;15.55;;;8.25;;
71166;SDS011;58864;45.928;20.078;2023-04-29T03:55:29;14.37;;;7.20;;
71166;SDS011;58864;45.928;20.078;2023-04-29T03:57:53;14.00;;;6.93;;
71166;SDS011;58864;45.928;20.078;2023-04-29T04:00:18;12.65;;;6.38;;
71166;SDS011;58864;45.928;20.078;2023-04-29T04:02:42;11.87;;;6.17;;
71166;SDS011;58864;45.928;20.078;2023-04-29T04:05:07;15.37;;;6.67;;
71166;SDS011;58864;45.928;20.078;2023-04-29T04:07:31;12.00;;;6.80;;
71166;SDS011;58864;45.928;20.078;2023-04-29T04:09:56;11.97;;;6.30;;
71166;SDS011;58864;45.928;20.078;2023-04-29T04:12:20;12.23;;;6.70;;
71166;SDS011;58864;45.928;20.078;2023-04-29T04:14:45;11.03;;;6.63;;
71166;SDS011;58864;45.928;20.078;2023-04-29T04:17:09;14.80;;;7.73;;
71166;SDS011;58864;45.928;20.078;2023-04-29T04:19:34;17.90;;;7.20;;
71166;SDS011;58864;45.928;20.078;2023-04-29T04:21:59;12.93;;;6.80;;
71166;SDS011;58864;45.928;20.078;2023-04-29T04:24:23;13.65;;;6.97;;
71166;SDS011;58864;45.928;20.078;2023-04-29T04:26:48;14.13;;;6.53;;
71166;SDS011;58864;45.928;20.078;2023-04-29T04:29:12;11.93;;;6.77;;
71166;SDS011;58864;45.928;20.078;2023-04-29T04:31:37;12.85;;;6.50;;
71166;SDS011;58864;45.928;20.078;2023-04-29T04:34:01;14.00;;;6.30;;
71166;SDS011;58864;45.928;20.078;2023-04-29T04:36:26;12.60;;;6.00;;
71166;SDS011;58864;45.928;20.078;2023-04-29T04:38:51;13.20;;;5.88;;
71166;SDS011;58864;45.928;20.078;2023-04-29T04:41:15;9.50;;;5.13;;
71166;SDS011;58864;45.928;20.078;2023-04-29T04:43:40;12.13;;;5.80;;
71166;SDS011;58864;45.928;20.078;2023-04-29T04:46:09;11.05;;;5.45;;
71166;SDS011;58864;45.928;20.078;2023-04-29T04:48:37;15.43;;;7.70;;
71166;SDS011;58864;45.928;20.078;2023-04-29T04:51:11;14.33;;;7.07;;
71166;SDS011;58864;45.928;20.078;2023-04-29T04:53:36;14.80;;;7.50;;
71166;SDS011;58864;45.928;20.078;2023-04-29T04:56:01;13.43;;;7.37;;
71166;SDS011;58864;45.928;20.078;2023-04-29T04:58:25;14.63;;;7.53;;
71166;SDS011;58864;45.928;20.078;2023-04-29T05:00:50;16.27;;;8.10;;
71166;SDS011;58864;45.928;20.078;2023-04-29T05:03:15;15.75;;;8.52;;
71166;SDS011;58864;45.928;20.078;2023-04-29T05:05:39;14.33;;;7.70;;
71166;SDS011;58864;45.928;20.078;2023-04-29T05:08:04;14.70;;;8.27;;
71166;SDS011;58864;45.928;20.078;2023-04-29T05:10:28;16.83;;;7.70;;
71166;SDS011;58864;45.928;20.078;2023-04-29T05:12:53;15.30;;;8.03;;
71166;SDS011;58864;45.928;20.078;2023-04-29T05:15:17;16.40;;;7.25;;
71166;SDS011;58864;45.928;20.078;2023-04-29T05:17:42;20.63;;;8.27;;
71166;SDS011;58864;45.928;20.078;2023-04-29T05:20:06;15.13;;;7.70;;
71166;SDS011;58864;45.928;20.078;2023-04-29T05:22:32;14.75;;;6.90;;
71166;SDS011;58864;45.928;20.078;2023-04-29T05:24:56;11.57;;;6.40;;
71166;SDS011;58864;45.928;20.078;2023-04-29T05:27:25;13.20;;;6.30;;
71166;SDS011;58864;45.928;20.078;2023-04-29T05:29:50;11.37;;;5.40;;
71166;SDS011;58864;45.928;20.078;2023-04-29T05:32:14;14.47;;;6.00;;
71166;SDS011;58864;45.928;20.078;2023-04-29T05:34:39;14.77;;;5.90;;
71166;SDS011;58864;45.928;20.078;2023-04-29T05:37:03;12.60;;;6.27;;
71166;SDS011;58864;45.928;20.078;2023-04-29T05:39:28;12.90;;;5.77;;
71166;SDS011;58864;45.928;20.078;2023-04-29T05:41:52;15.83;;;5.70;;
71166;SDS011;58864;45.928;20.078;2023-04-29T05:44:16;15.30;;;6.10;;
71166;SDS011;58864;45.928;20.078;2023-04-29T05:46:41;14.20;;;6.30;;
71166;SDS011;58864;45.928;20.078;2023-04-29T05:49:05;13.70;;;6.27;;
71166;SDS011;58864;45.928;20.078;2023-04-29T05:51:30;11.52;;;6.00;;
71166;SDS011;58864;45.928;20.078;2023-04-29T05:53:55;14.23;;;6.53;;
71166;SDS011;58864;45.928;20.078;2023-04-29T05:56:19;14.55;;;6.75;;
71166;SDS011;58864;45.928;20.078;2023-04-29T05:58:45;17.30;;;7.45;;
71166;SDS011;58864;45.928;20.078;2023-04-29T06:01:09;12.70;;;6.03;;
71166;SDS011;58864;45.928;20.078;2023-04-29T06:03:34;14.23;;;6.43;;
71166;SDS011;58864;45.928;20.078;2023-04-29T06:05:58;16.88;;;5.85;;
71166;SDS011;58864;45.928;20.078;2023-04-29T06:08:23;15.23;;;6.73;;
71166;SDS011;58864;45.928;20.078;2023-04-29T06:10:48;13.38;;;6.68;;
71166;SDS011;58864;45.928;20.078;2023-04-29T06:13:15;13.52;;;6.05;;
71166;SDS011;58864;45.928;20.078;2023-04-29T06:15:39;14.27;;;6.50;;
71166;SDS011;58864;45.928;20.078;2023-04-29T06:18:03;12.77;;;6.50;;
71166;SDS011;58864;45.928;20.078;2023-04-29T06:20:28;13.55;;;6.80;;
71166;SDS011;58864;45.928;20.078;2023-04-29T06:22:52;17.73;;;8.00;;
71166;SDS011;58864;45.928;20.078;2023-04-29T06:25:17;17.00;;;7.10;;
71166;SDS011;58864;45.928;20.078;2023-04-29T06:27:41;14.67;;;6.57;;
71166;SDS011;58864;45.928;20.078;2023-04-29T06:30:06;15.38;;;7.22;;
71166;SDS011;58864;45.928;20.078;2023-04-29T06:32:31;16.92;;;7.22;;
71166;SDS011;58864;45.928;20.078;2023-04-29T06:34:55;18.27;;;6.87;;
71166;SDS011;58864;45.928;20.078;2023-04-29T06:37:20;14.13;;;7.20;;
71166;SDS011;58864;45.928;20.078;2023-04-29T06:39:44;16.30;;;7.13;;
71166;SDS011;58864;45.928;20.078;2023-04-29T06:42:09;13.45;;;6.40;;
71166;SDS011;58864;45.928;20.078;2023-04-29T06:44:33;13.87;;;6.70;;
71166;SDS011;58864;45.928;20.078;2023-04-29T06:46:58;13.60;;;5.60;;
71166;SDS011;58864;45.928;20.078;2023-04-29T06:49:22;10.82;;;5.50;;
71166;SDS011;58864;45.928;20.078;2023-04-29T06:51:47;11.50;;;6.03;;
71166;SDS011;58864;45.928;20.078;2023-04-29T06:54:11;13.23;;;5.87;;
71166;SDS011;58864;45.928;20.078;2023-04-29T06:56:36;11.07;;;5.03;;
71166;SDS011;58864;45.928;20.078;2023-04-29T06:59:00;12.77;;;5.50;;
71166;SDS011;58864;45.928;20.078;2023-04-29T07:01:24;10.87;;;5.80;;
71166;SDS011;58864;45.928;20.078;2023-04-29T07:03:49;15.07;;;6.05;;
71166;SDS011;58864;45.928;20.078;2023-04-29T07:06:14;15.93;;;5.97;;
71166;SDS011;58864;45.928;20.078;2023-04-29T07:08:38;17.23;;;5.37;;
71166;SDS011;58864;45.928;20.078;2023-04-29T07:11:03;13.20;;;5.73;;
71166;SDS011;58864;45.928;20.078;2023-04-29T07:13:28;10.80;;;4.70;;
71166;SDS011;58864;45.928;20.078;2023-04-29T07:15:52;9.20;;;4.33;;
71166;SDS011;58864;45.928;20.078;2023-04-29T07:18:17;13.50;;;4.33;;
71166;SDS011;58864;45.928;20.078;2023-04-29T07:20:41;10.50;;;4.90;;
71166;SDS011;58864;45.928;20.078;2023-04-29T07:23:07;12.60;;;4.90;;
71166;SDS011;58864;45.928;20.078;2023-04-29T07:25:31;13.07;;;5.80;;
71166;SDS011;58864;45.928;20.078;2023-04-29T07:27:57;12.32;;;6.05;;
71166;SDS011;58864;45.928;20.078;2023-04-29T07:30:21;11.33;;;5.43;;
71166;SDS011;58864;45.928;20.078;2023-04-29T07:32:46;11.60;;;6.07;;
71166;SDS011;58864;45.928;20.078;2023-04-29T07:35:10;10.23;;;4.73;;
71166;SDS011;58864;45.928;20.078;2023-04-29T07:37:35;11.67;;;6.40;;
71166;SDS011;58864;45.928;20.078;2023-04-29T07:39:59;14.23;;;6.45;;
71166;SDS011;58864;45.928;20.078;2023-04-29T07:42:24;47.80;;;15.83;;
71166;SDS011;58864;45.928;20.078;2023-04-29T07:44:49;48.90;;;17.20;;
71166;SDS011;58864;45.928;20.078;2023-04-29T07:47:13;44.20;;;16.60;;
71166;SDS011;58864;45.928;20.078;2023-04-29T07:49:38;20.73;;;9.65;;
71166;SDS011;58864;45.928;20.078;2023-04-29T07:52:05;11.80;;;6.00;;
71166;SDS011;58864;45.928;20.078;2023-04-29T07:54:34;11.48;;;6.15;;
71166;SDS011;58864;45.928;20.078;2023-04-29T07:57:06;13.57;;;6.20;;
71166;SDS011;58864;45.928;20.078;2023-04-29T07:59:31;12.55;;;5.45;;
71166;SDS011;58864;45.928;20.078;2023-04-29T08:01:55;12.63;;;5.93;;
71166;SDS011;58864;45.928;20.078;2023-04-29T08:04:20;13.85;;;6.22;;
71166;SDS011;58864;45.928;20.078;2023-04-29T08:06:44;11.63;;;5.67;;
71166;SDS011;58864;45.928;20.078;2023-04-29T08:09:09;11.65;;;5.78;;
71166;SDS011;58864;45.928;20.078;2023-04-29T08:11:34;9.85;;;5.30;;
71166;SDS011;58864;45.928;20.078;2023-04-29T08:13:58;13.03;;;6.57;;
71166;SDS011;58864;45.928;20.078;2023-04-29T08:16:23;11.20;;;5.40;;
71166;SDS011;58864;45.928;20.078;2023-04-29T08:18:49;11.90;;;5.30;;
71166;SDS011;58864;45.928;20.078;2023-04-29T08:21:13;14.03;;;5.00;;
71166;SDS011;58864;45.928;20.078;2023-04-29T08:23:39;11.57;;;4.97;;
71166;SDS011;58864;45.928;20.078;2023-04-29T08:26:03;11.80;;;5.23;;
71166;SDS011;58864;45.928;20.078;2023-04-29T08:28:28;16.85;;;5.05;;
71166;SDS011;58864;45.928;20.078;2023-04-29T08:30:52;10.60;;;4.27;;
71166;SDS011;58864;45.928;20.078;2023-04-29T08:33:17;8.73;;;4.40;;
71166;SDS011;58864;45.928;20.078;2023-04-29T08:35:41;11.50;;;4.00;;
71166;SDS011;58864;45.928;20.078;2023-04-29T08:38:06;9.57;;;4.60;;
71166;SDS011;58864;45.928;20.078;2023-04-29T08:40:34;9.70;;;4.43;;
71166;SDS011;58864;45.928;20.078;2023-04-29T08:42:59;8.30;;;4.00;;
71166;SDS011;58864;45.928;20.078;2023-04-29T08:45:24;13.00;;;4.65;;
71166;SDS011;58864;45.928;20.078;2023-04-29T08:47:50;8.15;;;3.78;;
71166;SDS011;58864;45.928;20.078;2023-04-29T08:50:15;10.10;;;4.20;;
71166;SDS011;58864;45.928;20.078;2023-04-29T08:52:41;10.15;;;4.28;;
71166;SDS011;58864;45.928;20.078;2023-04-29T08:55:05;12.37;;;4.87;;
71166;SDS011;58864;45.928;20.078;2023-04-29T08:57:31;9.88;;;4.32;;
71166;SDS011;58864;45.928;20.078;2023-04-29T09:00:08;11.45;;;4.78;;
71166;SDS011;58864;45.928;20.078;2023-04-29T09:02:34;10.38;;;4.18;;
71166;SDS011;58864;45.928;20.078;2023-04-29T09:05:05;12.80;;;4.20;;
71166;SDS011;58864;45.928;20.078;2023-04-29T09:07:32;10.23;;;4.20;;
71166;SDS011;58864;45.928;20.078;2023-04-29T09:09:56;9.77;;;3.70;;
71166;SDS011;58864;45.928;20.078;2023-04-29T09:12:22;10.27;;;3.40;;
71166;SDS011;58864;45.928;20.078;2023-04-29T09:14:46;7.63;;;3.50;;
71166;SDS011;58864;45.928;20.078;2023-04-29T09:17:10;7.83;;;3.30;;
71166;SDS011;58864;45.928;20.078;2023-04-29T09:19:35;9.93;;;3.27;;
71166;SDS011;58864;45.928;20.078;2023-04-29T09:22:00;8.40;;;3.60;;
71166;SDS011;58864;45.928;20.078;2023-04-29T09:24:28;7.85;;;3.08;;
71166;SDS011;58864;45.928;20.078;2023-04-29T09:26:54;9.65;;;3.25;;
71166;SDS011;58864;45.928;20.078;2023-04-29T09:29:19;9.77;;;3.60;;
71166;SDS011;58864;45.928;20.078;2023-04-29T09:31:44;9.40;;;3.53;;
71166;SDS011;58864;45.928;20.078;2023-04-29T09:34:10;10.73;;;2.90;;
71166;SDS011;58864;45.928;20.078;2023-04-29T09:39:10;6.10;;;2.77;;
71166;SDS011;58864;45.928;20.078;2023-04-29T09:42:01;6.90;;;2.88;;
71166;SDS011;58864;45.928;20.078;2023-04-29T09:44:27;8.55;;;3.00;;
71166;SDS011;58864;45.928;20.078;2023-04-29T09:46:56;7.35;;;2.72;;
71166;SDS011;58864;45.928;20.078;2023-04-29T09:49:21;7.70;;;3.03;;
71166;SDS011;58864;45.928;20.078;2023-04-29T09:51:59;8.70;;;3.00;;
71166;SDS011;58864;45.928;20.078;2023-04-29T09:54:25;6.93;;;3.42;;
71166;SDS011;58864;45.928;20.078;2023-04-29T09:56:54;11.23;;;3.00;;
71166;SDS011;58864;45.928;20.078;2023-04-29T09:59:19;6.88;;;2.90;;
71166;SDS011;58864;45.928;20.078;2023-04-29T10:01:47;8.47;;;3.67;;
71166;SDS011;58864;45.928;20.078;2023-04-29T10:04:13;12.35;;;3.70;;
71166;SDS011;58864;45.928;20.078;2023-04-29T10:06:39;6.85;;;2.83;;
71166;SDS011;58864;45.928;20.078;2023-04-29T10:09:04;8.32;;;3.00;;
71166;SDS011;58864;45.928;20.078;2023-04-29T10:11:30;9.03;;;2.53;;
71166;SDS011;58864;45.928;20.078;2023-04-29T10:13:55;8.35;;;2.63;;
71166;SDS011;58864;45.928;20.078;2023-04-29T10:16:29;8.68;;;2.58;;
71166;SDS011;58864;45.928;20.078;2023-04-29T10:18:56;7.95;;;2.95;;
71166;SDS011;58864;45.928;20.078;2023-04-29T10:21:26;7.37;;;2.80;;
71166;SDS011;58864;45.928;20.078;2023-04-29T10:23:52;11.55;;;2.63;;
71166;SDS011;58864;45.928;20.078;2023-04-29T10:26:17;11.50;;;2.70;;
71166;SDS011;58864;45.928;20.078;2023-04-29T10:28:43;6.13;;;2.38;;
71166;SDS011;58864;45.928;20.078;2023-04-29T10:31:09;7.50;;;2.80;;
71166;SDS011;58864;45.928;20.078;2023-04-29T10:33:33;7.57;;;2.43;;
71166;SDS011;58864;45.928;20.078;2023-04-29T10:35:59;6.60;;;2.55;;
71166;SDS011;58864;45.928;20.078;2023-04-29T10:38:44;9.10;;;2.60;;
71166;SDS011;58864;45.928;20.078;2023-04-29T10:41:24;6.30;;;2.27;;
71166;SDS011;58864;45.928;20.078;2023-04-29T10:43:51;9.43;;;3.30;;
71166;SDS011;58864;45.928;20.078;2023-04-29T10:48:48;5.72;;;2.50;;
71166;SDS011;58864;45.928;20.078;2023-04-29T10:51:32;9.50;;;3.90;;
71166;SDS011;58864;45.928;20.078;2023-04-29T10:59:02;8.60;;;2.85;;
71166;SDS011;58864;45.928;20.078;2023-04-29T11:04:05;6.30;;;2.80;;
71166;SDS011;58864;45.928;20.078;2023-04-29T11:09:01;7.47;;;2.80;;
71166;SDS011;58864;45.928;20.078;2023-04-29T11:11:42;5.97;;;2.30;;
71166;SDS011;58864;45.928;20.078;2023-04-29T11:14:20;6.45;;;2.50;;
71166;SDS011;58864;45.928;20.078;2023-04-29T11:16:47;6.38;;;2.63;;
71166;SDS011;58864;45.928;20.078;2023-04-29T11:19:16;7.30;;;2.63;;
71166;SDS011;58864;45.928;20.078;2023-04-29T11:21:41;6.03;;;2.30;;
71166;SDS011;58864;45.928;20.078;2023-04-29T11:24:06;5.00;;;2.00;;
71166;SDS011;58864;45.928;20.078;2023-04-29T11:26:31;5.80;;;2.20;;
71166;SDS011;58864;45.928;20.078;2023-04-29T11:28:59;7.43;;;2.60;;
71166;SDS011;58864;45.928;20.078;2023-04-29T11:31:29;6.32;;;2.03;;
71166;SDS011;58864;45.928;20.078;2023-04-29T11:33:54;4.70;;;2.17;;
71166;SDS011;58864;45.928;20.078;2023-04-29T11:36:19;6.77;;;2.10;;
71166;SDS011;58864;45.928;20.078;2023-04-29T11:38:43;6.28;;;2.05;;
71166;SDS011;58864;45.928;20.078;2023-04-29T11:41:10;6.40;;;2.30;;
71166;SDS011;58864;45.928;20.078;2023-04-29T11:43:34;6.40;;;2.28;;
71166;SDS011;58864;45.928;20.078;2023-04-29T11:45:59;6.97;;;2.40;;
71166;SDS011;58864;45.928;20.078;2023-04-29T11:48:24;7.90;;;2.60;;
71166;SDS011;58864;45.928;20.078;2023-04-29T11:50:50;7.90;;;2.60;;
71166;SDS011;58864;45.928;20.078;2023-04-29T11:53:19;4.72;;;1.92;;
71166;SDS011;58864;45.928;20.078;2023-04-29T11:55:45;6.32;;;2.35;;
71166;SDS011;58864;45.928;20.078;2023-04-29T11:58:09;7.03;;;2.50;;
71166;SDS011;58864;45.928;20.078;2023-04-29T12:00:34;7.00;;;2.40;;
71166;SDS011;58864;45.928;20.078;2023-04-29T12:02:59;7.33;;;2.50;;
71166;SDS011;58864;45.928;20.078;2023-04-29T12:05:26;6.83;;;2.30;;
71166;SDS011;58864;45.928;20.078;2023-04-29T12:07:51;6.53;;;2.70;;
71166;SDS011;58864;45.928;20.078;2023-04-29T12:10:16;8.60;;;2.70;;
71166;SDS011;58864;45.928;20.078;2023-04-29T12:12:40;19.40;;;3.00;;
71166;SDS011;58864;45.928;20.078;2023-04-29T12:15:07;14.80;;;3.37;;
71166;SDS011;58864;45.928;20.078;2023-04-29T12:17:33;13.43;;;2.85;;
71166;SDS011;58864;45.928;20.078;2023-04-29T12:19:57;6.93;;;2.50;;
71166;SDS011;58864;45.928;20.078;2023-04-29T12:22:22;6.60;;;2.30;;
71166;SDS011;58864;45.928;20.078;2023-04-29T12:24:46;8.43;;;3.00;;
71166;SDS011;58864;45.928;20.078;2023-04-29T12:27:13;8.77;;;2.60;;
71166;SDS011;58864;45.928;20.078;2023-04-29T12:29:38;6.83;;;2.30;;
71166;SDS011;58864;45.928;20.078;2023-04-29T12:32:03;6.63;;;2.75;;
71166;SDS011;58864;45.928;20.078;2023-04-29T12:34:28;6.85;;;2.80;;
71166;SDS011;58864;45.928;20.078;2023-04-29T12:36:55;8.43;;;2.70;;
71166;SDS011;58864;45.928;20.078;2023-04-29T12:39:21;6.82;;;2.45;;
71166;SDS011;58864;45.928;20.078;2023-04-29T12:41:45;6.07;;;2.63;;
71166;SDS011;58864;45.928;20.078;2023-04-29T12:44:09;6.50;;;2.60;;
71166;SDS011;58864;45.928;20.078;2023-04-29T12:46:35;30.00;;;4.55;;
71166;SDS011;58864;45.928;20.078;2023-04-29T12:49:04;9.87;;;2.60;;
71166;SDS011;58864;45.928;20.078;2023-04-29T12:51:29;5.68;;;2.65;;
71166;SDS011;58864;45.928;20.078;2023-04-29T12:53:55;11.98;;;2.60;;
71166;SDS011;58864;45.928;20.078;2023-04-29T12:56:19;5.47;;;2.27;;
71166;SDS011;58864;45.928;20.078;2023-04-29T12:58:44;5.53;;;2.20;;
71166;SDS011;58864;45.928;20.078;2023-04-29T13:01:09;6.63;;;2.33;;
71166;SDS011;58864;45.928;20.078;2023-04-29T13:03:33;6.63;;;2.65;;
71166;SDS011;58864;45.928;20.078;2023-04-29T13:05:59;6.15;;;2.30;;
71166;SDS011;58864;45.928;20.078;2023-04-29T13:08:24;6.30;;;2.67;;
71166;SDS011;58864;45.928;20.078;2023-04-29T13:10:48;6.15;;;2.40;;
71166;SDS011;58864;45.928;20.078;2023-04-29T13:13:13;9.37;;;2.77;;
71166;SDS011;58864;45.928;20.078;2023-04-29T13:15:37;6.05;;;2.42;;
71166;SDS011;58864;45.928;20.078;2023-04-29T13:18:02;5.77;;;2.97;;
71166;SDS011;58864;45.928;20.078;2023-04-29T13:20:27;5.37;;;2.20;;
71166;SDS011;58864;45.928;20.078;2023-04-29T13:22:51;6.00;;;2.40;;
71166;SDS011;58864;45.928;20.078;2023-04-29T13:25:16;5.53;;;2.40;;
71166;SDS011;58864;45.928;20.078;2023-04-29T13:27:40;6.63;;;2.60;;
71166;SDS011;58864;45.928;20.078;2023-04-29T13:30:05;7.77;;;3.10;;
71166;SDS011;58864;45.928;20.078;2023-04-29T13:32:30;7.10;;;2.70;;
71166;SDS011;58864;45.928;20.078;2023-04-29T13:34:55;5.60;;;2.60;;
71166;SDS011;58864;45.928;20.078;2023-04-29T13:37:19;5.95;;;2.50;;
71166;SDS011;58864;45.928;20.078;2023-04-29T13:39:44;7.07;;;2.83;;
71166;SDS011;58864;45.928;20.078;2023-04-29T13:42:08;6.50;;;2.60;;
71166;SDS011;58864;45.928;20.078;2023-04-29T13:44:33;6.23;;;2.60;;
71166;SDS011;58864;45.928;20.078;2023-04-29T13:46:58;6.93;;;2.75;;
71166;SDS011;58864;45.928;20.078;2023-04-29T13:49:23;6.93;;;3.33;;
71166;SDS011;58864;45.928;20.078;2023-04-29T13:51:48;7.63;;;3.58;;
71166;SDS011;58864;45.928;20.078;2023-04-29T13:54:12;7.27;;;2.80;;
71166;SDS011;58864;45.928;20.078;2023-04-29T13:56:37;5.23;;;2.53;;
71166;SDS011;58864;45.928;20.078;2023-04-29T13:59:01;7.23;;;2.90;;
71166;SDS011;58864;45.928;20.078;2023-04-29T14:01:25;15.60;;;5.00;;
71166;SDS011;58864;45.928;20.078;2023-04-29T14:03:50;7.45;;;2.92;;
71166;SDS011;58864;45.928;20.078;2023-04-29T14:06:15;6.63;;;3.23;;
71166;SDS011;58864;45.928;20.078;2023-04-29T14:08:39;9.30;;;3.27;;
71166;SDS011;58864;45.928;20.078;2023-04-29T14:11:04;7.37;;;3.07;;
71166;SDS011;58864;45.928;20.078;2023-04-29T14:13:28;8.37;;;3.10;;
71166;SDS011;58864;45.928;20.078;2023-04-29T14:15:53;6.20;;;2.47;;
71166;SDS011;58864;45.928;20.078;2023-04-29T14:18:17;6.77;;;2.73;;
71166;SDS011;58864;45.928;20.078;2023-04-29T14:20:42;7.95;;;3.25;;
71166;SDS011;58864;45.928;20.078;2023-04-29T14:23:06;8.00;;;4.20;;
71166;SDS011;58864;45.928;20.078;2023-04-29T14:25:31;9.47;;;3.43;;
71166;SDS011;58864;45.928;20.078;2023-04-29T14:27:55;7.43;;;3.22;;
71166;SDS011;58864;45.928;20.078;2023-04-29T14:30:20;5.97;;;2.40;;
71166;SDS011;58864;45.928;20.078;2023-04-29T14:32:44;7.30;;;3.10;;
71166;SDS011;58864;45.928;20.078;2023-04-29T14:35:10;9.43;;;4.00;;
71166;SDS011;58864;45.928;20.078;2023-04-29T14:37:35;6.72;;;2.78;;
71166;SDS011;58864;45.928;20.078;2023-04-29T14:39:59;9.03;;;3.50;;
71166;SDS011;58864;45.928;20.078;2023-04-29T14:42:24;7.00;;;3.63;;
71166;SDS011;58864;45.928;20.078;2023-04-29T14:44:48;10.30;;;3.10;;
71166;SDS011;58864;45.928;20.078;2023-04-29T14:47:13;7.57;;;3.43;;